createdAt,value
2018-04-11T00:00:19.300Z,24.67
2018-04-11T00:03:21.794Z,26.27
2018-04-11T00:06:24.265Z,27.50
2018-04-11T00:09:26.788Z,25.90
2018-04-11T00:12:29.354Z,27.80
2018-04-11T00:15:31.896Z,26.53
2018-04-11T00:18:34.434Z,25.60
2018-04-11T00:21:36.909Z,26.43
2018-04-11T00:24:39.503Z,26.33
2018-04-11T00:27:42.017Z,26.80
2018-04-11T00:30:44.495Z,25.13
2018-04-11T00:33:47.004Z,25.40
2018-04-11T00:36:49.648Z,25.47
2018-04-11T00:39:52.192Z,25.60
2018-04-11T00:42:54.662Z,26.00
2018-04-11T00:45:57.233Z,25.30
2018-04-11T00:48:59.749Z,25.20
2018-04-11T00:52:02.250Z,25.20
2018-04-11T00:55:04.751Z,26.30
2018-04-11T00:58:07.288Z,26.50
2018-04-11T01:01:09.809Z,25.43
2018-04-11T01:04:12.350Z,25.33
2018-04-11T01:07:14.866Z,26.80
2018-04-11T01:10:17.376Z,25.67
2018-04-11T01:13:19.989Z,26.20
2018-04-11T01:16:22.479Z,27.80
2018-04-11T01:19:24.940Z,25.70
2018-04-11T01:22:27.435Z,25.40
2018-04-11T01:25:29.929Z,25.03
2018-04-11T01:28:32.489Z,25.40
2018-04-11T01:31:34.967Z,24.43
2018-04-11T01:34:37.462Z,25.10
2018-04-11T01:37:39.965Z,26.30
2018-04-11T01:40:42.469Z,26.97
2018-04-11T01:43:44.959Z,27.40
2018-04-11T01:46:47.425Z,26.00
2018-04-11T01:49:49.919Z,24.90
2018-04-11T01:52:52.484Z,25.27
2018-04-11T01:55:55.000Z,26.90
2018-04-11T01:58:57.455Z,25.80
2018-04-11T02:01:59.936Z,26.60
2018-04-11T02:05:02.428Z,25.70
2018-04-11T02:08:04.926Z,25.00
2018-04-11T02:11:07.391Z,24.63
2018-04-11T02:14:09.873Z,24.60
2018-04-11T02:17:12.372Z,25.77
2018-04-11T02:20:14.933Z,25.40
2018-04-11T02:23:17.392Z,26.30
2018-04-11T02:26:19.887Z,26.17
2018-04-11T02:29:22.352Z,25.73
2018-04-11T02:32:24.879Z,26.40
2018-04-11T02:35:27.339Z,26.13
2018-04-11T02:38:30.248Z,26.40
2018-04-11T02:41:32.698Z,26.40
2018-04-11T02:44:35.237Z,26.97
2018-04-11T02:47:37.792Z,26.80
2018-04-11T02:50:40.240Z,26.30
2018-04-11T02:53:42.823Z,26.07
2018-04-11T02:56:45.292Z,26.03
2018-04-11T02:59:47.792Z,26.63
2018-04-11T03:02:50.297Z,25.90
2018-04-11T03:05:52.772Z,26.03
2018-04-11T03:08:55.331Z,27.83
2018-04-11T03:11:57.787Z,26.20
2018-04-11T03:15:00.298Z,27.93
2018-04-11T03:18:02.922Z,27.20
2018-04-11T03:21:05.427Z,27.47
2018-04-11T03:24:07.916Z,28.57
2018-04-11T03:27:10.403Z,28.03
2018-04-11T03:30:12.960Z,27.27
2018-04-11T03:33:15.518Z,28.97
2018-04-11T03:36:18.020Z,31.23
2018-04-11T03:39:20.649Z,29.33
2018-04-11T03:42:23.145Z,31.13
2018-04-11T03:45:25.610Z,30.17
2018-04-11T03:48:28.113Z,30.50
2018-04-11T03:51:30.593Z,32.87
2018-04-11T03:54:33.093Z,32.07
2018-04-11T03:57:35.612Z,32.77
2018-04-11T04:00:38.102Z,35.00
2018-04-11T04:03:40.638Z,33.30
2018-04-11T04:06:43.205Z,32.33
2018-04-11T04:09:45.656Z,32.17
2018-04-11T04:12:48.186Z,33.50
2018-04-11T04:16:02.550Z,33.47
2018-04-11T04:19:17.009Z,33.30
2018-04-11T04:22:19.552Z,34.60
2018-04-11T04:25:22.023Z,32.10
2018-04-11T04:28:24.574Z,33.90
2018-04-11T04:31:27.141Z,33.53
2018-04-11T04:34:29.657Z,34.90
2018-04-11T04:37:32.169Z,35.50
2018-04-11T04:40:34.722Z,35.10
2018-04-11T04:43:37.253Z,36.73
2018-04-11T04:46:39.751Z,36.07
2018-04-11T04:49:42.237Z,36.63
2018-04-11T04:52:44.737Z,35.13
2018-04-11T04:55:47.197Z,34.43
2018-04-11T04:58:49.725Z,34.90
2018-04-11T05:01:52.253Z,34.10
2018-04-11T05:04:54.816Z,35.53
2018-04-11T05:07:57.320Z,33.33
2018-04-11T05:10:59.805Z,34.03
2018-04-11T05:14:02.302Z,31.33
2018-04-11T05:17:04.782Z,31.07
2018-04-11T05:20:07.356Z,31.07
2018-04-11T05:23:09.919Z,30.10
2018-04-11T05:26:12.376Z,29.40
2018-04-11T05:29:14.910Z,28.20
2018-04-11T05:32:17.398Z,30.43
2018-04-11T05:35:19.939Z,28.83
2018-04-11T05:38:22.495Z,29.03
2018-04-11T05:41:25.160Z,27.77
2018-04-11T05:44:27.725Z,28.63
2018-04-11T05:47:30.281Z,26.27
2018-04-11T05:50:32.807Z,27.10
2018-04-11T05:53:35.304Z,27.80
2018-04-11T05:56:37.792Z,28.37
2018-04-11T05:59:41.579Z,29.97
2018-04-11T06:02:44.129Z,29.70
2018-04-11T06:05:46.652Z,29.33
2018-04-11T06:08:49.251Z,29.60
2018-04-11T06:11:51.820Z,30.27
2018-04-11T06:14:54.465Z,30.57
2018-04-11T06:17:56.945Z,29.50
2018-04-11T06:20:59.483Z,31.00
2018-04-11T06:24:01.989Z,30.10
2018-04-11T06:27:04.496Z,29.13
2018-04-11T06:30:06.973Z,30.57
2018-04-11T06:33:09.540Z,28.60
2018-04-11T06:36:12.025Z,30.17
2018-04-11T06:39:14.570Z,29.17
2018-04-11T06:42:17.059Z,29.47
2018-04-11T06:45:19.519Z,31.00
2018-04-11T06:48:22.016Z,29.50
2018-04-11T06:51:24.679Z,33.13
2018-04-11T06:54:27.142Z,31.33
2018-04-11T06:57:29.844Z,31.57
2018-04-11T07:00:32.341Z,30.73
2018-04-11T07:03:34.826Z,28.00
2018-04-11T07:06:37.340Z,30.23
2018-04-11T07:09:39.841Z,28.80
2018-04-11T07:12:42.369Z,28.60
2018-04-11T07:15:44.895Z,29.80
2018-04-11T07:18:47.434Z,31.87
2018-04-11T07:21:50.041Z,30.67
2018-04-11T07:24:52.546Z,29.93
2018-04-11T07:27:55.079Z,29.17
2018-04-11T07:30:57.581Z,31.63
2018-04-11T07:34:00.112Z,32.70
2018-04-11T07:37:02.606Z,32.20
2018-04-11T07:40:05.145Z,32.33
2018-04-11T07:43:07.636Z,35.53
2018-04-11T07:46:10.192Z,33.60
2018-04-11T07:49:12.805Z,33.90
2018-04-11T07:52:15.358Z,34.17
2018-04-11T07:55:17.819Z,34.13
2018-04-11T07:58:20.360Z,32.10
2018-04-11T08:01:22.895Z,30.70
2018-04-11T08:04:25.512Z,32.93
2018-04-11T08:07:28.022Z,31.90
2018-04-11T08:10:30.532Z,32.97
2018-04-11T08:13:33.045Z,31.60
2018-04-11T08:16:35.541Z,30.23
2018-04-11T08:19:37.990Z,31.07
2018-04-11T08:22:40.575Z,32.57
2018-04-11T08:25:43.096Z,32.67
2018-04-11T08:28:45.620Z,31.93
2018-04-11T08:31:48.116Z,32.73
2018-04-11T08:34:50.639Z,31.20
2018-04-11T08:37:53.150Z,31.40
2018-04-11T08:40:55.652Z,31.13
2018-04-11T08:43:58.172Z,32.03
2018-04-11T08:47:00.710Z,31.83
2018-04-11T08:50:03.212Z,31.80
2018-04-11T08:53:05.751Z,32.97
2018-04-11T08:56:08.256Z,30.20
2018-04-11T08:59:10.891Z,34.40
2018-04-11T09:02:13.416Z,35.80
2018-04-11T09:05:15.947Z,34.67
2018-04-11T09:08:18.451Z,35.47
2018-04-11T09:11:21.072Z,36.20
2018-04-11T09:14:23.656Z,35.43
2018-04-11T09:17:26.171Z,32.73
2018-04-11T09:20:28.662Z,33.50
2018-04-11T09:23:31.156Z,33.93
2018-04-11T09:26:33.753Z,33.53
2018-04-11T09:29:36.371Z,33.80
2018-04-11T09:32:38.922Z,36.80
2018-04-11T09:35:41.467Z,36.73
2018-04-11T09:38:43.985Z,36.03
2018-04-11T09:41:46.491Z,35.37
2018-04-11T09:44:49.168Z,37.90
2018-04-11T09:47:51.688Z,36.57
2018-04-11T09:50:54.188Z,37.87
2018-04-11T09:53:56.731Z,37.60
2018-04-11T09:56:59.243Z,35.30
2018-04-11T10:00:01.827Z,38.10
2018-04-11T10:03:06.074Z,39.10
2018-04-11T10:06:08.647Z,40.27
2018-04-11T10:09:11.132Z,39.43
2018-04-11T10:12:13.643Z,40.27
2018-04-11T10:15:16.231Z,40.80
2018-04-11T10:18:18.731Z,38.17
2018-04-11T10:21:21.247Z,41.07
2018-04-11T10:24:23.776Z,38.90
2018-04-11T10:27:26.257Z,39.73
2018-04-11T10:30:28.793Z,39.17
2018-04-11T10:33:31.301Z,38.60
2018-04-11T10:36:33.867Z,42.10
2018-04-11T10:39:36.318Z,37.63
2018-04-11T10:42:38.812Z,39.97
2018-04-11T10:45:41.282Z,40.20
2018-04-11T10:48:43.825Z,38.10
2018-04-11T10:51:46.321Z,40.80
2018-04-11T10:54:48.832Z,39.50
2018-04-11T10:57:51.353Z,38.83
2018-04-11T11:00:53.913Z,37.27
2018-04-11T11:03:56.432Z,38.43
2018-04-11T11:06:58.907Z,40.50
2018-04-11T11:10:01.431Z,37.20
2018-04-11T11:13:03.992Z,37.90
2018-04-11T11:16:06.560Z,37.07
2018-04-11T11:19:09.074Z,36.30
2018-04-11T11:22:11.560Z,37.43
2018-04-11T11:25:14.108Z,38.17
2018-04-11T11:28:16.627Z,37.40
2018-04-11T11:31:19.144Z,37.17
2018-04-11T11:34:21.730Z,35.97
2018-04-11T11:37:24.218Z,37.60
2018-04-11T11:40:26.793Z,35.67
2018-04-11T11:43:29.318Z,36.73
2018-04-11T11:46:31.798Z,37.37
2018-04-11T11:49:34.316Z,39.67
2018-04-11T11:52:36.833Z,37.40
2018-04-11T11:55:39.379Z,37.60
2018-04-11T11:58:41.884Z,38.40
2018-04-11T12:01:44.337Z,40.50
2018-04-11T12:04:46.968Z,39.80
2018-04-11T12:07:49.468Z,38.90
2018-04-11T12:10:51.959Z,40.13
2018-04-11T12:13:54.560Z,41.00
2018-04-11T12:16:57.094Z,38.93
2018-04-11T12:19:59.582Z,37.67
2018-04-11T12:23:02.123Z,37.77
2018-04-11T12:26:04.623Z,37.50
2018-04-11T12:29:07.259Z,38.33
2018-04-11T12:32:09.769Z,37.57
2018-04-11T12:35:12.298Z,38.43
2018-04-11T12:38:14.803Z,37.60
2018-04-11T12:41:17.396Z,36.63
2018-04-11T12:44:19.921Z,36.97
2018-04-11T12:47:22.409Z,36.33
2018-04-11T12:50:24.908Z,38.57
2018-04-11T12:53:27.413Z,38.53
2018-04-11T12:56:29.894Z,39.20
2018-04-11T12:59:32.469Z,37.90
2018-04-11T13:02:35.032Z,38.00
2018-04-11T13:05:37.522Z,39.13
2018-04-11T13:08:40.038Z,39.60
2018-04-11T13:11:42.612Z,40.07
2018-04-11T13:14:45.081Z,40.53
2018-04-11T13:17:47.609Z,40.53
2018-04-11T13:20:50.110Z,39.73
2018-04-11T13:23:52.576Z,40.80
2018-04-11T13:26:55.120Z,38.73
2018-04-11T13:29:57.654Z,40.87
2018-04-11T13:33:00.190Z,42.50
2018-04-11T13:36:02.741Z,43.30
2018-04-11T13:39:05.479Z,43.00
2018-04-11T13:42:07.980Z,44.10
2018-04-11T13:45:10.524Z,44.20
2018-04-11T13:48:12.991Z,41.27
2018-04-11T13:51:15.521Z,43.47
2018-04-11T13:54:18.037Z,40.63
2018-04-11T13:57:20.654Z,37.97
2018-04-11T14:00:23.191Z,35.90
2018-04-11T14:07:03.337Z,37.30
2018-04-11T14:10:05.817Z,35.17
2018-04-11T14:13:08.327Z,36.30
2018-04-11T14:16:10.870Z,37.40
2018-04-11T14:19:13.372Z,37.60
2018-04-11T14:22:15.959Z,39.63
2018-04-11T14:25:18.548Z,40.57
2018-04-11T14:28:21.014Z,40.17
2018-04-11T14:31:23.580Z,41.20
2018-04-11T14:34:26.051Z,39.97
2018-04-11T14:37:28.552Z,38.40
2018-04-11T14:40:31.062Z,38.40
2018-04-11T14:43:33.577Z,35.87
2018-04-11T14:46:36.121Z,37.77
2018-04-11T14:49:38.622Z,38.20
2018-04-11T14:52:41.074Z,35.40
2018-04-11T14:55:43.555Z,38.67
2018-04-11T14:58:46.058Z,37.03
2018-04-11T15:01:48.580Z,40.50
2018-04-11T15:04:51.134Z,39.63
2018-04-11T15:07:53.622Z,40.10
2018-04-11T15:10:56.141Z,41.03
2018-04-11T15:13:58.621Z,43.43
2018-04-11T15:17:01.115Z,40.57
2018-04-11T15:20:03.678Z,41.50
2018-04-11T15:23:06.158Z,41.20
2018-04-11T15:26:08.684Z,43.37
2018-04-11T15:29:11.186Z,43.67
2018-04-11T15:32:13.697Z,44.17
2018-04-11T15:35:16.245Z,45.00
2018-04-11T15:38:18.743Z,45.70
2018-04-11T15:41:21.212Z,45.37
2018-04-11T15:44:23.736Z,45.10
2018-04-11T15:47:26.263Z,45.00
2018-04-11T15:50:28.775Z,43.43
2018-04-11T15:53:31.328Z,42.90
2018-04-11T15:56:33.842Z,44.47
2018-04-11T15:59:36.335Z,43.20
2018-04-11T16:02:38.852Z,42.97
2018-04-11T16:05:41.327Z,44.00
2018-04-11T16:08:43.851Z,44.77
2018-04-11T16:11:46.403Z,44.93
2018-04-11T16:14:48.908Z,44.10
2018-04-11T16:17:51.397Z,44.37
2018-04-11T16:20:53.890Z,44.17
2018-04-11T16:23:56.396Z,42.97
2018-04-11T16:26:58.919Z,42.90
2018-04-11T16:30:01.429Z,42.10
2018-04-11T16:33:03.937Z,43.37
2018-04-11T16:36:06.442Z,41.70
2018-04-11T16:39:08.964Z,44.83
2018-04-11T16:42:11.485Z,41.30
2018-04-11T16:45:14.020Z,40.53
2018-04-11T16:48:17.002Z,40.57
2018-04-11T16:51:19.556Z,40.17
2018-04-11T16:54:22.015Z,43.20
2018-04-11T16:57:24.531Z,40.60
2018-04-11T17:00:26.993Z,41.80
2018-04-11T17:03:29.679Z,41.77
2018-04-11T17:06:32.212Z,41.40
2018-04-11T17:09:34.752Z,40.90
2018-04-11T17:12:37.193Z,40.70
2018-04-11T17:15:39.716Z,40.37
2018-04-11T17:18:42.259Z,41.87
2018-04-11T17:21:57.754Z,40.80
2018-04-11T17:25:12.068Z,41.20
2018-04-11T17:32:03.704Z,41.60
2018-04-11T17:35:06.237Z,41.47
2018-04-11T17:38:08.776Z,42.30
2018-04-11T17:41:11.277Z,42.33
2018-04-11T17:44:13.865Z,42.17
2018-04-11T17:47:16.518Z,42.43
2018-04-11T17:50:19.006Z,34.07
2018-04-11T17:53:21.492Z,32.30
2018-04-11T17:56:24.023Z,29.33
2018-04-11T17:59:26.510Z,29.70
2018-04-11T18:02:29.084Z,28.10
2018-04-11T18:05:31.583Z,28.67
2018-04-11T18:08:34.116Z,29.90
2018-04-11T18:11:36.655Z,28.43
2018-04-11T18:14:39.185Z,28.00
2018-04-11T18:17:41.664Z,29.57
2018-04-11T18:20:44.188Z,30.47
2018-04-11T18:23:46.731Z,30.37
2018-04-11T18:26:49.319Z,30.63
2018-04-11T18:29:51.956Z,30.97
2018-04-11T18:32:54.555Z,31.80
2018-04-11T18:35:57.101Z,31.67
2018-04-11T18:38:59.651Z,31.50
2018-04-11T18:42:02.183Z,34.20
2018-04-11T18:45:04.748Z,32.70
2018-04-11T18:48:07.282Z,33.00
2018-04-11T18:51:09.808Z,34.30
2018-04-11T18:54:12.339Z,34.47
2018-04-11T18:57:14.953Z,35.20
2018-04-11T19:00:17.614Z,36.27
2018-04-11T19:03:20.165Z,36.70
2018-04-11T19:06:22.707Z,35.60
2018-04-11T19:09:25.250Z,35.53
2018-04-11T19:12:27.942Z,32.33
2018-04-11T19:15:30.614Z,32.60
2018-04-11T19:18:33.131Z,33.57
2018-04-11T19:21:35.667Z,32.23
2018-04-11T19:24:38.173Z,32.53
2018-04-11T19:27:40.654Z,32.20
2018-04-11T19:30:43.175Z,33.50
2018-04-11T19:33:45.706Z,31.40
2018-04-11T19:36:48.184Z,33.20
2018-04-11T19:39:50.705Z,32.20
2018-04-11T19:42:53.216Z,31.83
2018-04-11T19:45:55.728Z,33.30
2018-04-11T19:48:58.300Z,31.67
2018-04-11T19:52:00.803Z,31.63
2018-04-11T19:55:03.307Z,32.90
2018-04-11T19:58:05.917Z,32.67
2018-04-11T20:01:08.454Z,31.90
2018-04-11T20:04:10.994Z,32.00
2018-04-11T20:07:13.468Z,30.90
2018-04-11T20:10:16.041Z,31.50
2018-04-11T20:13:18.607Z,31.47
2018-04-11T20:16:21.109Z,33.07
2018-04-11T20:19:23.626Z,32.57
2018-04-11T20:22:26.146Z,32.57
2018-04-11T20:25:28.685Z,33.17
2018-04-11T20:28:32.105Z,33.47
2018-04-11T20:31:34.676Z,34.13
2018-04-11T20:34:37.199Z,36.57
2018-04-11T20:37:39.779Z,34.43
2018-04-11T20:40:42.229Z,37.60
2018-04-11T20:43:44.740Z,38.57
2018-04-11T20:46:47.247Z,37.73
2018-04-11T20:49:49.756Z,37.00
2018-04-11T20:52:52.234Z,37.33
2018-04-11T20:55:54.784Z,37.60
2018-04-11T20:58:57.303Z,36.60
2018-04-11T21:01:59.838Z,35.77
2018-04-11T21:05:02.309Z,35.47
2018-04-11T21:08:04.833Z,34.47
2018-04-11T21:11:07.775Z,34.10
2018-04-11T21:14:10.292Z,34.27
2018-04-11T21:17:12.766Z,34.73
2018-04-11T21:20:15.306Z,33.80
2018-04-11T21:23:17.809Z,35.80
2018-04-11T21:26:20.322Z,32.80
2018-04-11T21:29:22.924Z,29.93
2018-04-11T21:32:25.476Z,29.50
2018-04-11T21:35:27.955Z,29.57
2018-04-11T21:38:30.461Z,30.20
2018-04-11T21:41:32.997Z,33.63
2018-04-11T21:44:35.539Z,33.50
2018-04-11T21:47:38.036Z,30.47
2018-04-11T21:50:40.577Z,33.90
2018-04-11T21:53:43.046Z,31.83
2018-04-11T21:56:45.556Z,32.80
2018-04-11T21:59:48.022Z,35.40
2018-04-11T22:02:50.536Z,33.33
2018-04-11T22:05:53.046Z,33.30
2018-04-11T22:08:55.529Z,33.60
2018-04-11T22:11:58.015Z,34.83
2018-04-11T22:15:00.504Z,32.37
2018-04-11T22:18:03.057Z,37.90
2018-04-11T22:21:05.528Z,35.33
2018-04-11T22:24:08.030Z,36.30
2018-04-11T22:27:10.505Z,39.23
2018-04-11T22:30:13.001Z,36.33
2018-04-11T22:33:15.492Z,35.20
2018-04-11T22:36:18.003Z,35.80
2018-04-11T22:39:20.543Z,36.93
2018-04-11T22:42:23.042Z,35.60
2018-04-11T22:45:25.797Z,35.27
2018-04-11T22:48:28.387Z,36.37
2018-04-11T22:51:30.878Z,35.73
2018-04-11T22:54:33.405Z,36.80
2018-04-11T22:57:35.939Z,37.60
2018-04-11T23:00:38.462Z,38.83
2018-04-11T23:03:40.960Z,37.87
2018-04-11T23:06:43.450Z,39.90
2018-04-11T23:09:45.971Z,38.10
2018-04-11T23:12:48.453Z,39.10
2018-04-11T23:15:50.936Z,39.10
2018-04-11T23:18:53.490Z,39.60
2018-04-11T23:21:55.936Z,40.20
2018-04-11T23:24:58.441Z,39.23
2018-04-11T23:28:00.976Z,41.93
2018-04-11T23:31:03.470Z,40.23
2018-04-11T23:34:05.940Z,39.50
2018-04-11T23:37:08.491Z,41.27
2018-04-11T23:40:11.001Z,41.33
2018-04-11T23:43:13.476Z,39.50
2018-04-11T23:46:16.006Z,42.33
2018-04-11T23:49:18.545Z,43.37
2018-04-11T23:52:21.021Z,42.67
2018-04-11T23:55:23.540Z,42.40
2018-04-11T23:58:26.033Z,41.47
